Time;durP1;ratioP1;P1;durP2;ratioP2;P2;SDS_P1;SDS_P2;PMS_P1;PMS_P2;Temp;Humidity;BMP_temperature;BMP_pressure;BME280_temperature;BME280_humidity;BME280_pressure;Samples;Min_cycle;Max_cycle;Signal;HPM_P1;HPM_P2
2023/03/28 00:00:42;;;;;;;3.30;1.40;;;4.10;99.90;;;;;;4972381;28;20031;-75
2023/03/28 00:03:08;;;;;;;5.45;1.23;;;4.00;99.90;;;;;;4957858;28;20236;-75
2023/03/28 00:05:33;;;;;;;5.25;1.38;;;4.00;99.90;;;;;;4977796;28;20105;-75
2023/03/28 00:07:59;;;;;;;4.85;1.15;;;4.00;99.90;;;;;;4981856;28;20042;-75
2023/03/28 00:10:26;;;;;;;3.05;1.10;;;4.00;99.90;;;;;;4963278;28;20053;-75
2023/03/28 00:12:52;;;;;;;6.05;1.00;;;4.00;99.90;;;;;;4979331;28;20026;-76
2023/03/28 00:15:18;;;;;;;2.15;1.55;;;4.00;99.90;;;;;;4962788;28;20038;-75
2023/03/28 00:17:43;;;;;;;3.58;1.10;;;4.00;99.90;;;;;;4971445;28;20169;-76
2023/03/28 00:20:11;;;;;;;4.43;1.63;;;4.00;99.90;;;;;;4959764;28;20129;-75
2023/03/28 00:22:37;;;;;;;3.75;1.27;;;4.10;99.90;;;;;;4970055;28;20387;-75
2023/03/28 00:25:07;;;;;;;1.63;1.10;;;4.20;99.90;;;;;;4979176;28;20040;-75
2023/03/28 00:27:34;;;;;;;4.93;1.30;;;4.20;99.90;;;;;;4962598;28;20034;-74
2023/03/28 00:30:01;;;;;;;5.00;1.02;;;4.30;99.90;;;;;;4977154;28;20050;-75
2023/03/28 00:32:27;;;;;;;4.07;1.50;;;4.30;99.90;;;;;;4978857;28;20034;-75
2023/03/28 00:34:52;;;;;;;6.53;1.50;;;4.30;99.90;;;;;;4966208;28;20031;-75
2023/03/28 00:37:19;;;;;;;4.78;1.25;;;4.20;99.90;;;;;;4963402;28;20083;-76
2023/03/28 00:39:48;;;;;;;5.43;2.33;;;4.20;99.90;;;;;;4979720;28;20026;-76
2023/03/28 00:42:20;;;;;;;3.15;1.20;;;4.20;99.90;;;;;;4962187;28;20073;-75
2023/03/28 00:44:48;;;;;;;3.25;1.40;;;4.20;99.90;;;;;;4961430;28;20528;-75
2023/03/28 00:48:05;;;;;;;4.65;1.45;;;4.30;99.90;;;;;;4980044;28;20553;-75
2023/03/28 00:50:37;;;;;;;1.92;1.15;;;4.30;99.90;;;;;;4940788;28;20074;-75
2023/03/28 00:53:12;;;;;;;2.80;1.20;;;4.30;99.90;;;;;;4964287;28;20039;-75
2023/03/28 00:55:47;;;;;;;3.08;1.10;;;4.30;99.90;;;;;;4962788;28;20034;-75
2023/03/28 00:58:22;;;;;;;7.47;1.23;;;4.20;99.90;;;;;;4977463;28;20026;-75
2023/03/28 01:00:48;;;;;;;5.22;1.13;;;4.20;99.90;;;;;;4968385;28;20026;-75
2023/03/28 01:03:15;;;;;;;4.57;1.52;;;4.10;99.90;;;;;;4972480;28;20448;-74
2023/03/28 01:05:44;;;;;;;2.83;1.17;;;4.10;99.90;;;;;;4974934;28;20034;-75
2023/03/28 01:08:20;;;;;;;5.05;0.90;;;4.20;99.90;;;;;;4974768;28;20486;-74
2023/03/28 01:10:46;;;;;;;2.53;0.85;;;4.10;99.90;;;;;;4962509;28;20045;-75
2023/03/28 01:13:16;;;;;;;3.78;1.35;;;4.30;99.90;;;;;;4978316;28;20057;-75
2023/03/28 01:15:43;;;;;;;4.97;1.08;;;4.40;99.90;;;;;;4979465;28;20409;-74
2023/03/28 01:18:10;;;;;;;4.97;1.20;;;4.40;99.90;;;;;;4960039;28;20030;-75
2023/03/28 01:20:38;;;;;;;2.90;1.25;;;4.50;99.90;;;;;;4960981;28;20158;-75
2023/03/28 01:23:13;;;;;;;2.53;1.20;;;4.60;99.90;;;;;;4978154;28;20026;-75
2023/03/28 01:26:17;;;;;;;3.28;1.00;;;4.70;99.90;;;;;;4950048;28;20030;-75
2023/03/28 01:28:55;;;;;;;1.73;0.90;;;4.90;99.90;;;;;;4973496;28;20204;-75
2023/03/28 01:31:39;;;;;;;3.88;1.02;;;4.90;99.90;;;;;;4965269;28;20023;-75
2023/03/28 01:34:07;;;;;;;4.68;1.08;;;4.90;99.90;;;;;;4964995;28;20168;-75
2023/03/28 01:37:07;;;;;;;4.78;1.13;;;4.90;99.90;;;;;;4967730;28;20078;-74
2023/03/28 01:39:51;;;;;;;1.58;0.88;;;4.90;99.90;;;;;;4939702;28;20048;-75
2023/03/28 01:42:19;;;;;;;1.60;0.82;;;4.90;99.90;;;;;;4957652;28;20498;-74
2023/03/28 01:44:44;;;;;;;1.58;1.08;;;4.80;99.90;;;;;;4970489;28;20061;-74
2023/03/28 01:47:16;;;;;;;3.15;0.65;;;4.80;99.90;;;;;;4959255;28;20030;-74
2023/03/28 01:50:04;;;;;;;4.30;1.50;;;4.90;99.90;;;;;;4972820;28;20044;-75
2023/03/28 01:52:51;;;;;;;4.00;1.13;;;4.90;99.90;;;;;;4974995;28;20477;-74
2023/03/28 01:55:22;;;;;;;2.90;1.10;;;4.90;99.90;;;;;;4975372;28;20045;-75
2023/03/28 01:58:00;;;;;;;3.92;1.10;;;5.00;99.90;;;;;;4975095;28;20428;-75
2023/03/28 02:00:31;;;;;;;7.57;1.38;;;5.00;99.90;;;;;;4969002;28;20588;-75
2023/03/28 02:03:12;;;;;;;5.80;0.90;;;5.10;99.90;;;;;;4938926;28;20121;-74
2023/03/28 02:05:39;;;;;;;3.92;0.90;;;5.10;99.90;;;;;;4921776;28;20026;-75
2023/03/28 02:08:08;;;;;;;3.50;1.15;;;5.30;99.90;;;;;;4936803;28;20035;-75
2023/03/28 02:10:37;;;;;;;3.97;1.17;;;5.30;99.90;;;;;;4931627;28;20042;-74
2023/03/28 02:13:08;;;;;;;5.47;1.17;;;5.30;99.90;;;;;;4943045;28;20037;-75
2023/03/28 02:15:34;;;;;;;4.57;0.98;;;5.30;99.90;;;;;;4946399;28;20227;-75
2023/03/28 02:18:05;;;;;;;4.40;1.00;;;5.30;99.90;;;;;;4943264;28;20945;-75
2023/03/28 02:20:33;;;;;;;6.22;1.20;;;5.30;99.90;;;;;;4936458;28;20041;-75
2023/03/28 02:23:10;;;;;;;4.05;1.17;;;5.30;99.90;;;;;;4935463;29;20028;-75
2023/03/28 02:25:37;;;;;;;7.00;1.20;;;5.40;99.90;;;;;;4943483;28;20416;-74
2023/03/28 02:28:06;;;;;;;7.88;1.50;;;5.30;99.90;;;;;;4951416;28;20294;-75
2023/03/28 02:30:33;;;;;;;7.38;1.20;;;5.30;99.90;;;;;;4947177;28;20043;-75
2023/03/28 02:33:07;;;;;;;4.30;1.40;;;5.30;99.90;;;;;;4948629;28;20359;-75
2023/03/28 02:36:20;;;;;;;3.45;1.13;;;5.30;99.90;;;;;;4935532;28;20042;-75
2023/03/28 02:39:09;;;;;;;3.97;1.23;;;5.40;99.90;;;;;;4916680;28;20046;-74
2023/03/28 02:42:00;;;;;;;2.80;1.17;;;5.40;99.90;;;;;;4947564;28;20280;-74
2023/03/28 02:44:34;;;;;;;5.50;1.48;;;5.50;99.90;;;;;;4953483;28;20133;-74
2023/03/28 02:47:23;;;;;;;7.28;1.27;;;5.50;99.90;;;;;;4953158;28;20038;-74
2023/03/28 02:50:21;;;;;;;2.28;1.33;;;5.50;99.90;;;;;;4931411;28;20524;-74
2023/03/28 02:52:52;;;;;;;4.57;1.20;;;5.50;99.90;;;;;;4957648;28;20038;-75
2023/03/28 02:55:29;;;;;;;7.45;2.03;;;5.50;99.90;;;;;;4953809;28;20070;-74
2023/03/28 02:58:07;;;;;;;4.43;1.13;;;5.50;99.90;;;;;;4955441;28;20037;-75
2023/03/28 03:00:33;;;;;;;7.22;1.30;;;5.50;99.90;;;;;;4959903;28;20209;-75
2023/03/28 03:03:00;;;;;;;7.20;1.50;;;5.50;99.90;;;;;;4974047;28;20734;-75
2023/03/28 03:05:26;;;;;;;6.80;1.58;;;5.60;99.90;;;;;;4953425;28;20537;-74
2023/03/28 03:07:51;;;;;;;4.78;1.33;;;5.60;99.90;;;;;;4974789;28;20109;-75
2023/03/28 03:10:17;;;;;;;4.10;1.20;;;5.60;99.90;;;;;;4978193;28;20125;-75
2023/03/28 03:12:43;;;;;;;6.65;1.30;;;5.60;99.90;;;;;;4960320;28;20022;-74
2023/03/28 03:15:10;;;;;;;6.53;1.63;;;5.60;99.90;;;;;;4960104;28;20092;-75
2023/03/28 03:17:36;;;;;;;6.18;1.85;;;5.60;99.90;;;;;;4957841;28;20058;-75
2023/03/28 03:20:06;;;;;;;4.28;1.35;;;5.80;99.90;;;;;;4952789;28;20166;-74
2023/03/28 03:22:33;;;;;;;7.25;1.80;;;5.80;99.90;;;;;;4954281;28;20490;-74
2023/03/28 03:25:05;;;;;;;8.32;1.67;;;5.90;99.90;;;;;;4976258;28;20060;-74
2023/03/28 03:27:31;;;;;;;8.35;1.40;;;5.90;99.90;;;;;;4958293;28;20298;-75
2023/03/28 03:29:57;;;;;;;7.43;1.80;;;5.90;99.90;;;;;;4955177;28;20039;-74
2023/03/28 03:32:23;;;;;;;6.47;2.22;;;6.00;99.90;;;;;;4958546;28;20035;-75
2023/03/28 03:34:48;;;;;;;8.15;1.83;;;6.10;99.90;;;;;;4971718;28;20229;-75
2023/03/28 03:37:16;;;;;;;7.13;1.40;;;6.10;99.90;;;;;;4960086;28;20157;-75
2023/03/28 03:39:43;;;;;;;6.05;1.80;;;6.10;99.90;;;;;;4975380;28;20648;-75
2023/03/28 03:42:09;;;;;;;8.60;1.60;;;6.10;99.90;;;;;;4976188;28;20097;-74
2023/03/28 03:44:35;;;;;;;6.72;1.70;;;6.10;99.90;;;;;;4977122;28;20105;-75
2023/03/28 03:47:01;;;;;;;4.88;1.35;;;6.10;99.90;;;;;;4978816;28;20073;-74
2023/03/28 03:49:27;;;;;;;13.23;2.45;;;6.10;99.90;;;;;;4974524;28;20096;-74
2023/03/28 03:51:52;;;;;;;9.57;1.45;;;6.20;99.90;;;;;;4973261;28;20038;-75
2023/03/28 03:54:18;;;;;;;7.30;1.55;;;6.30;99.90;;;;;;4973774;28;20096;-74
2023/03/28 03:56:44;;;;;;;6.03;1.60;;;6.40;99.90;;;;;;4971634;28;20038;-75
2023/03/28 03:59:10;;;;;;;9.68;2.08;;;6.40;99.90;;;;;;4972378;28;20030;-74
2023/03/28 04:01:38;;;;;;;4.85;1.45;;;6.50;99.90;;;;;;4943579;28;20093;-74
2023/03/28 04:04:06;;;;;;;7.00;1.73;;;6.60;99.90;;;;;;4958645;28;20058;-75
2023/03/28 04:06:33;;;;;;;6.53;1.40;;;6.60;99.90;;;;;;4942086;28;20034;-75
2023/03/28 04:08:58;;;;;;;4.70;1.50;;;6.70;99.90;;;;;;4947968;28;20073;-74
2023/03/28 04:11:24;;;;;;;6.63;1.45;;;6.70;99.90;;;;;;4978116;28;20105;-74
2023/03/28 04:13:50;;;;;;;6.68;1.52;;;6.70;99.90;;;;;;4961412;28;20045;-73
2023/03/28 04:16:16;;;;;;;11.23;1.70;;;6.70;99.90;;;;;;4973982;28;20109;-75
2023/03/28 04:18:49;;;;;;;9.70;2.25;;;6.70;99.90;;;;;;4971805;28;20034;-75
2023/03/28 04:21:17;;;;;;;6.15;1.52;;;6.80;99.90;;;;;;4961178;28;20042;-74
2023/03/28 04:23:43;;;;;;;8.15;1.70;;;6.80;99.90;;;;;;4970156;28;20478;-74
2023/03/28 04:26:08;;;;;;;8.55;1.63;;;6.70;99.90;;;;;;4979784;28;20027;-74
2023/03/28 04:28:34;;;;;;;12.60;1.95;;;6.70;99.90;;;;;;4974483;28;20038;-76
2023/03/28 04:31:00;;;;;;;6.15;1.60;;;6.70;99.90;;;;;;4958718;28;20044;-74
2023/03/28 04:33:27;;;;;;;8.93;1.65;;;6.70;99.90;;;;;;4966935;28;20388;-71
2023/03/28 04:35:55;;;;;;;4.93;1.70;;;6.70;99.90;;;;;;4978055;28;20479;-75
2023/03/28 04:38:27;;;;;;;10.35;1.70;;;6.70;99.90;;;;;;4965394;28;20097;-75
2023/03/28 04:40:56;;;;;;;10.32;1.85;;;6.80;99.90;;;;;;4981229;28;20447;-75
2023/03/28 04:43:26;;;;;;;8.48;1.50;;;6.80;99.90;;;;;;4980348;28;20120;-75
2023/03/28 04:45:52;;;;;;;10.23;1.75;;;6.80;99.90;;;;;;4980323;28;20113;-75
2023/03/28 04:48:18;;;;;;;10.13;1.52;;;6.90;99.90;;;;;;4959630;28;20118;-75
2023/03/28 04:50:44;;;;;;;7.50;1.55;;;6.90;99.90;;;;;;4977421;28;20515;-74
2023/03/28 04:53:11;;;;;;;9.60;1.90;;;6.90;99.90;;;;;;4973255;28;20037;-75
2023/03/28 04:55:37;;;;;;;5.90;1.55;;;6.90;99.90;;;;;;4978762;28;20049;-75
2023/03/28 04:58:03;;;;;;;8.88;1.65;;;6.80;99.90;;;;;;4970614;28;20494;-74
2023/03/28 05:00:29;;;;;;;11.70;1.60;;;6.80;99.90;;;;;;4942798;28;20177;-74
2023/03/28 05:02:58;;;;;;;7.32;1.90;;;6.70;99.90;;;;;;4957667;28;20150;-75
2023/03/28 05:05:24;;;;;;;6.50;1.70;;;6.70;99.90;;;;;;4973887;28;20039;-74
2023/03/28 05:07:50;;;;;;;10.00;2.40;;;6.60;99.90;;;;;;4965506;28;20027;-74
2023/03/28 05:10:16;;;;;;;9.70;2.30;;;6.60;99.90;;;;;;4979053;28;20061;-75
2023/03/28 05:12:42;;;;;;;12.10;2.42;;;6.60;99.90;;;;;;4959834;28;20046;-75
2023/03/28 05:15:08;;;;;;;8.10;2.03;;;6.60;99.90;;;;;;4977388;28;20131;-74
2023/03/28 05:17:33;;;;;;;7.15;1.58;;;6.50;99.90;;;;;;4976291;28;20415;-75
2023/03/28 05:19:59;;;;;;;10.05;2.78;;;6.50;99.90;;;;;;4957055;28;20128;-75
2023/03/28 05:22:25;;;;;;;7.82;1.88;;;6.50;99.90;;;;;;4972385;28;20058;-75
2023/03/28 05:24:51;;;;;;;10.40;2.15;;;6.50;99.90;;;;;;4966278;28;20033;-75
2023/03/28 05:27:16;;;;;;;9.38;2.20;;;6.50;99.90;;;;;;4990741;28;20095;-74
2023/03/28 05:29:42;;;;;;;8.30;2.13;;;6.50;99.90;;;;;;4974290;28;20054;-74
2023/03/28 05:32:08;;;;;;;10.38;1.80;;;6.50;99.90;;;;;;4976617;28;20053;-74
2023/03/28 05:34:34;;;;;;;13.35;2.28;;;6.40;99.90;;;;;;4957826;28;20115;-74
2023/03/28 05:37:00;;;;;;;7.60;2.20;;;6.40;99.90;;;;;;4975102;28;20569;-74
2023/03/28 05:39:27;;;;;;;9.82;2.80;;;6.40;99.90;;;;;;4973735;28;20038;-75
2023/03/28 05:41:52;;;;;;;12.40;2.88;;;6.40;99.90;;;;;;4973605;28;20036;-75
2023/03/28 05:44:18;;;;;;;10.90;2.50;;;6.30;99.90;;;;;;4977933;28;20042;-75
2023/03/28 05:46:43;;;;;;;10.82;2.75;;;6.30;99.90;;;;;;4959785;28;20101;-75
2023/03/28 05:49:10;;;;;;;12.80;2.47;;;6.40;99.90;;;;;;4956507;28;20442;-74
2023/03/28 05:51:36;;;;;;;11.48;3.08;;;6.30;99.90;;;;;;4976626;28;20632;-75
2023/03/28 05:54:02;;;;;;;9.82;2.72;;;6.40;99.90;;;;;;4973516;28;20034;-74
2023/03/28 05:56:28;;;;;;;10.57;2.90;;;6.40;99.90;;;;;;4958369;28;20030;-75
2023/03/28 05:58:53;;;;;;;13.52;3.03;;;6.40;99.90;;;;;;4980103;28;20097;-74
2023/03/28 06:01:26;;;;;;;11.88;2.75;;;6.40;99.90;;;;;;4973836;28;20088;-74
2023/03/28 06:03:52;;;;;;;14.85;3.33;;;6.50;99.90;;;;;;4968879;28;20534;-75
2023/03/28 06:06:18;;;;;;;14.50;3.30;;;6.50;99.90;;;;;;4968944;28;20041;-74
2023/03/28 06:08:44;;;;;;;10.52;2.80;;;6.50;99.90;;;;;;4966478;28;20037;-75
2023/03/28 06:11:10;;;;;;;14.93;3.45;;;6.60;99.90;;;;;;4966047;28;20336;-75
2023/03/28 06:13:36;;;;;;;15.45;2.88;;;6.60;99.90;;;;;;4964196;28;20034;-75
2023/03/28 06:16:02;;;;;;;7.63;2.72;;;6.60;99.90;;;;;;4964858;28;20051;-76
2023/03/28 06:18:27;;;;;;;9.50;2.42;;;6.70;99.90;;;;;;4972476;28;20034;-75
2023/03/28 06:20:53;;;;;;;8.23;2.70;;;6.70;99.90;;;;;;4966166;28;20627;-75
2023/03/28 06:23:19;;;;;;;15.73;2.63;;;6.70;99.90;;;;;;4966335;28;20030;-75
2023/03/28 06:25:45;;;;;;;12.13;3.20;;;6.80;99.90;;;;;;4956619;28;20034;-74
2023/03/28 06:28:10;;;;;;;13.70;3.08;;;6.80;99.90;;;;;;4961686;28;20041;-75
2023/03/28 06:30:38;;;;;;;8.98;2.70;;;6.90;99.90;;;;;;4960328;28;20034;-74
2023/03/28 06:33:05;;;;;;;13.15;3.13;;;6.90;99.90;;;;;;4966806;28;20389;-74
2023/03/28 06:35:31;;;;;;;12.80;2.72;;;7.00;99.90;;;;;;4967072;28;20121;-75
2023/03/28 06:37:57;;;;;;;10.15;2.65;;;7.00;99.90;;;;;;4971566;28;20077;-74
2023/03/28 06:40:23;;;;;;;13.10;3.30;;;7.10;99.90;;;;;;4978292;28;20455;-75
2023/03/28 06:42:49;;;;;;;14.10;2.92;;;7.10;99.90;;;;;;4976508;28;20414;-75
2023/03/28 06:45:14;;;;;;;18.15;3.63;;;7.10;99.90;;;;;;4955710;28;20038;-74
2023/03/28 06:47:40;;;;;;;21.83;2.97;;;7.10;99.90;;;;;;4953300;28;20058;-74
2023/03/28 06:50:06;;;;;;;8.23;2.67;;;7.20;99.90;;;;;;4976944;28;20567;-74
2023/03/28 06:52:32;;;;;;;7.57;2.30;;;7.30;99.90;;;;;;4976681;28;20035;-75
2023/03/28 06:54:58;;;;;;;10.85;2.58;;;7.30;99.90;;;;;;4965688;28;20155;-75
2023/03/28 06:57:24;;;;;;;12.60;2.88;;;7.30;99.90;;;;;;4975826;28;20491;-74
2023/03/28 06:59:51;;;;;;;18.45;3.17;;;7.40;99.90;;;;;;4975395;28;20030;-75
2023/03/28 07:02:17;;;;;;;15.20;3.03;;;7.50;99.90;;;;;;4942563;28;20511;-75
2023/03/28 07:04:42;;;;;;;10.85;2.88;;;7.50;99.90;;;;;;4956494;28;20041;-75
2023/03/28 07:07:08;;;;;;;8.57;2.70;;;7.60;99.90;;;;;;4958374;28;20030;-74
2023/03/28 07:09:35;;;;;;;14.63;3.15;;;7.70;99.90;;;;;;4963023;28;20053;-75
2023/03/28 07:12:01;;;;;;;10.43;2.22;;;7.80;99.90;;;;;;4978348;28;20034;-74
2023/03/28 07:14:27;;;;;;;15.90;2.63;;;7.90;99.90;;;;;;3940112;28;10001082;-75
2023/03/28 07:16:53;;;;;;;12.45;3.03;;;8.10;99.90;;;;;;4961739;28;20502;-75
2023/03/28 07:19:19;;;;;;;11.27;2.70;;;8.20;99.90;;;;;;4952939;28;20053;-75
2023/03/28 07:21:45;;;;;;;11.20;2.42;;;8.40;99.90;;;;;;4940764;28;20564;-75
2023/03/28 07:24:11;;;;;;;10.68;2.25;;;8.50;99.90;;;;;;4953549;28;20159;-74
2023/03/28 07:26:36;;;;;;;10.18;1.95;;;8.50;99.90;;;;;;4960397;28;20039;-74
2023/03/28 07:29:02;;;;;;;10.07;2.30;;;8.50;99.90;;;;;;4962392;28;20042;-75
2023/03/28 07:31:28;;;;;;;9.13;1.90;;;8.40;99.90;;;;;;4964857;28;20070;-75
2023/03/28 07:33:56;;;;;;;11.57;2.22;;;8.40;99.90;;;;;;4951392;28;20039;-74
2023/03/28 07:36:22;;;;;;;9.43;2.40;;;8.30;99.90;;;;;;4942382;28;20039;-75
2023/03/28 07:38:48;;;;;;;13.02;2.42;;;8.20;99.90;;;;;;4959370;28;20494;-75
2023/03/28 07:41:14;;;;;;;12.82;2.10;;;8.10;99.90;;;;;;4960002;28;20542;-75
2023/03/28 07:43:39;;;;;;;7.75;1.92;;;8.10;99.90;;;;;;4963873;28;20122;-74
2023/03/28 07:46:08;;;;;;;10.15;1.90;;;8.10;99.90;;;;;;4958873;28;20045;-76
2023/03/28 07:48:35;;;;;;;13.63;2.15;;;8.00;99.90;;;;;;4961460;28;20063;-74
2023/03/28 07:51:03;;;;;;;8.88;1.80;;;7.90;99.90;;;;;;4956147;28;20034;-74
2023/03/28 07:53:28;;;;;;;11.73;2.67;;;8.00;99.90;;;;;;4960356;28;20513;-74
2023/03/28 07:55:54;;;;;;;8.70;2.00;;;8.00;99.90;;;;;;4947348;28;20077;-74
2023/03/28 07:58:20;;;;;;;7.78;2.20;;;8.00;99.90;;;;;;4971473;28;20054;-74
2023/03/28 08:00:45;;;;;;;12.27;2.05;;;8.00;99.90;;;;;;4961856;28;20053;-73
2023/03/28 08:03:12;;;;;;;11.00;2.22;;;8.00;99.90;;;;;;4972051;28;20461;-74
2023/03/28 08:05:38;;;;;;;11.40;2.40;;;8.00;99.90;;;;;;4976663;28;20340;-75
2023/03/28 08:08:05;;;;;;;12.95;2.40;;;8.10;99.90;;;;;;4957748;28;20096;-75
2023/03/28 08:10:31;;;;;;;6.03;2.08;;;8.00;99.90;;;;;;4960314;28;20100;-74
2023/03/28 08:12:57;;;;;;;9.02;1.90;;;8.00;99.90;;;;;;4957806;28;20092;-74
2023/03/28 08:15:23;;;;;;;8.43;1.70;;;8.10;99.90;;;;;;4951598;28;20871;-74
2023/03/28 08:17:49;;;;;;;12.93;1.85;;;8.10;99.90;;;;;;4956394;28;20027;-73
2023/03/28 08:20:15;;;;;;;9.57;1.95;;;8.10;99.90;;;;;;4958024;28;21508;-73
2023/03/28 08:22:41;;;;;;;8.70;2.33;;;8.10;99.90;;;;;;4939477;28;20050;-74
2023/03/28 08:25:08;;;;;;;7.72;1.77;;;8.10;99.90;;;;;;4944053;28;20085;-73
2023/03/28 08:27:33;;;;;;;7.70;1.80;;;8.20;99.90;;;;;;4962400;28;20732;-74
2023/03/28 08:29:59;;;;;;;11.40;3.33;;;8.40;99.90;;;;;;4954396;28;20046;-73
2023/03/28 08:32:25;;;;;;;10.90;2.75;;;8.60;99.90;;;;;;4943507;28;20066;-74
2023/03/28 08:34:51;;;;;;;14.27;2.50;;;8.70;99.90;;;;;;4613633;28;9999684;-74
2023/03/28 08:37:18;;;;;;;9.95;2.22;;;8.70;99.90;;;;;;4959360;28;20050;-74
2023/03/28 08:39:43;;;;;;;9.75;1.75;;;8.70;99.90;;;;;;4959231;28;20035;-74
2023/03/28 08:42:40;;;;;;;8.93;1.65;;;8.60;99.90;;;;;;4946016;28;20065;-75
2023/03/28 08:45:31;;;;;;;12.00;2.38;;;8.50;99.90;;;;;;4956470;28;20149;-73
2023/03/28 08:48:18;;;;;;;12.13;1.95;;;8.40;99.90;;;;;;4963401;28;20626;-74
2023/03/28 08:50:52;;;;;;;5.43;1.60;;;8.40;99.90;;;;;;4959848;28;20038;-73
2023/03/28 08:53:33;;;;;;;8.25;2.05;;;8.40;99.90;;;;;;4964675;28;20402;-74
2023/03/28 08:56:02;;;;;;;13.00;1.95;;;8.30;99.90;;;;;;4971747;28;20078;-73
2023/03/28 08:58:46;;;;;;;5.63;1.75;;;8.30;99.90;;;;;;4943383;28;20061;-74
2023/03/28 09:01:12;;;;;;;12.77;1.92;;;8.30;99.90;;;;;;4967506;28;20467;-73
2023/03/28 09:03:38;;;;;;;11.23;2.13;;;8.20;99.90;;;;;;4964926;28;20134;-74
2023/03/28 09:06:25;;;;;;;8.50;2.38;;;8.20;99.90;;;;;;4965872;28;20370;-74
2023/03/28 09:09:26;;;;;;;8.80;1.67;;;8.30;99.90;;;;;;4963902;28;20062;-73
2023/03/28 09:11:57;;;;;;;9.57;1.73;;;8.40;99.90;;;;;;4965093;28;20530;-73
2023/03/28 09:15:01;;;;;;;9.30;1.67;;;8.50;99.90;;;;;;4975942;28;20062;-73
2023/03/28 09:17:32;;;;;;;9.45;1.60;;;8.60;99.90;;;;;;4918150;29;20524;-73
2023/03/28 09:20:15;;;;;;;8.80;1.83;;;8.80;99.90;;;;;;4945625;28;20371;-74
2023/03/28 09:22:59;;;;;;;8.30;1.80;;;8.90;99.90;;;;;;4962740;28;20558;-74
2023/03/28 09:25:42;;;;;;;7.82;1.33;;;9.00;99.90;;;;;;4953129;28;20213;-74
2023/03/28 09:28:30;;;;;;;8.52;1.42;;;9.10;99.90;;;;;;4974653;28;20081;-73
2023/03/28 09:30:57;;;;;;;8.85;1.80;;;9.10;99.90;;;;;;4979856;28;20042;-74
2023/03/28 09:33:29;;;;;;;4.50;1.42;;;9.00;99.90;;;;;;4961288;28;20188;-73
2023/03/28 09:35:58;;;;;;;7.43;1.45;;;8.90;99.90;;;;;;4964223;28;20093;-73
2023/03/28 09:38:38;;;;;;;8.75;1.20;;;8.80;99.90;;;;;;4965693;28;20022;-73
2023/03/28 09:41:11;;;;;;;7.38;1.70;;;8.60;99.90;;;;;;4966583;28;20033;-74
2023/03/28 09:43:58;;;;;;;9.85;2.17;;;8.50;99.90;;;;;;4971574;28;20302;-73
2023/03/28 09:46:37;;;;;;;6.78;1.48;;;8.40;99.90;;;;;;4970373;28;20038;-74
2023/03/28 09:49:03;;;;;;;10.45;2.10;;;8.30;99.90;;;;;;4976670;28;20038;-73
2023/03/28 09:51:29;;;;;;;7.03;1.40;;;8.20;99.90;;;;;;4976442;28;20042;-73
2023/03/28 09:53:54;;;;;;;6.68;1.30;;;8.20;99.90;;;;;;4969693;28;20034;-73
2023/03/28 09:56:27;;;;;;;6.38;1.58;;;8.20;99.90;;;;;;4978948;28;20037;-73
2023/03/28 09:58:56;;;;;;;7.68;1.45;;;8.20;99.90;;;;;;4974037;28;20026;-73
2023/03/28 10:01:26;;;;;;;11.75;2.25;;;8.20;99.90;;;;;;4976819;28;20434;-75
2023/03/28 10:03:53;;;;;;;6.55;1.70;;;8.10;99.90;;;;;;4959813;28;20153;-72
2023/03/28 10:06:26;;;;;;;11.25;1.90;;;8.10;99.90;;;;;;4952912;28;20119;-73
2023/03/28 10:08:52;;;;;;;4.75;1.80;;;8.00;99.90;;;;;;4967791;28;20037;-73
2023/03/28 10:11:20;;;;;;;7.20;1.45;;;8.10;99.90;;;;;;4966346;28;20031;-73
2023/03/28 10:13:48;;;;;;;7.55;1.65;;;8.10;99.90;;;;;;4948236;28;20046;-72
2023/03/28 10:16:33;;;;;;;9.15;1.50;;;8.10;99.90;;;;;;4960801;28;20057;-72
2023/03/28 10:18:59;;;;;;;6.82;1.83;;;8.00;99.90;;;;;;4969385;28;20023;-73
2023/03/28 10:21:26;;;;;;;6.95;1.88;;;8.00;99.90;;;;;;4974376;28;20803;-73
2023/03/28 10:24:03;;;;;;;6.68;1.60;;;8.00;99.90;;;;;;4960004;28;20026;-72
2023/03/28 10:26:30;;;;;;;8.60;1.70;;;8.00;99.90;;;;;;4963671;28;20026;-72
2023/03/28 10:28:59;;;;;;;8.35;1.50;;;8.00;99.90;;;;;;4952358;28;20032;-73
2023/03/28 10:31:30;;;;;;;6.68;1.30;;;8.00;99.90;;;;;;4967811;28;20086;-73
2023/03/28 10:33:58;;;;;;;7.15;2.08;;;8.10;99.90;;;;;;4962285;28;20030;-72
2023/03/28 10:36:39;;;;;;;7.47;1.88;;;8.00;99.90;;;;;;4955430;28;20046;-72
2023/03/28 10:39:34;;;;;;;12.68;1.80;;;8.00;99.90;;;;;;4955406;28;20160;-73
2023/03/28 10:42:01;;;;;;;9.25;1.60;;;8.00;99.90;;;;;;4947368;28;20046;-72
2023/03/28 10:44:35;;;;;;;13.86;1.64;;;7.90;99.90;;;;;;4616707;28;10000332;-73
2023/03/28 10:47:04;;;;;;;10.63;1.75;;;7.90;99.90;;;;;;4963596;28;20022;-73
2023/03/28 10:49:44;;;;;;;5.78;1.65;;;8.00;99.90;;;;;;4957114;28;20582;-72
2023/03/28 10:52:31;;;;;;;7.13;1.92;;;8.20;99.90;;;;;;4941252;28;20026;-73
2023/03/28 10:55:19;;;;;;;6.53;1.50;;;8.40;99.90;;;;;;4958857;28;20030;-72
2023/03/28 10:57:59;;;;;;;11.48;2.33;;;8.50;99.90;;;;;;4972024;28;20667;-72
2023/03/28 11:00:37;;;;;;;6.03;1.60;;;8.60;99.90;;;;;;4970072;28;20081;-72
2023/03/28 11:03:29;;;;;;;11.18;2.03;;;8.60;99.90;;;;;;4955689;28;20054;-72
2023/03/28 11:06:05;;;;;;;7.85;1.75;;;8.70;99.90;;;;;;4933807;28;20065;-73
2023/03/28 11:09:07;;;;;;;9.80;1.75;;;8.80;99.90;;;;;;4957785;28;20066;-73
2023/03/28 11:12:05;;;;;;;4.13;1.30;;;8.90;99.90;;;;;;4966224;28;20042;-72
2023/03/28 11:14:52;;;;;;;5.22;1.38;;;8.90;99.90;;;;;;4958506;28;20038;-72
2023/03/28 11:17:41;;;;;;;6.97;2.05;;;8.90;99.90;;;;;;4957422;28;20031;-73
2023/03/28 11:20:19;;;;;;;8.05;1.50;;;8.80;99.90;;;;;;4956642;28;20030;-73
2023/03/28 11:23:04;;;;;;;6.68;1.60;;;8.70;99.90;;;;;;4959793;28;20165;-72
2023/03/28 11:25:48;;;;;;;5.95;2.08;;;8.60;99.90;;;;;;4952915;28;20586;-72
2023/03/28 11:28:25;;;;;;;3.58;1.20;;;8.50;99.90;;;;;;4961904;28;20098;-73
2023/03/28 11:30:55;;;;;;;7.63;1.70;;;8.30;99.90;;;;;;4944101;28;20152;-73
2023/03/28 11:34:13;;;;;;;9.48;1.38;;;8.20;99.90;;;;;;4963212;28;20034;-73
2023/03/28 11:36:58;;;;;;;9.02;2.05;;;8.10;99.90;;;;;;4935777;28;20053;-72
2023/03/28 11:39:41;;;;;;;6.00;1.50;;;7.90;99.90;;;;;;4961787;28;20506;-72
2023/03/28 11:42:14;;;;;;;3.00;1.45;;;7.80;99.90;;;;;;4956700;28;20469;-72
2023/03/28 11:45:00;;;;;;;3.13;1.23;;;7.80;99.90;;;;;;4946389;28;20053;-72
2023/03/28 11:47:39;;;;;;;10.35;1.67;;;7.80;99.90;;;;;;4955571;28;20038;-72
2023/03/28 11:50:17;;;;;;;6.50;1.30;;;7.80;99.90;;;;;;4956563;28;20034;-72
2023/03/28 11:53:03;;;;;;;7.10;1.50;;;7.80;99.90;;;;;;4958112;28;20147;-71
2023/03/28 11:55:35;;;;;;;6.20;1.60;;;7.90;99.90;;;;;;4965327;28;20469;-72
2023/03/28 11:58:04;;;;;;;9.02;1.63;;;7.80;99.90;;;;;;4967492;28;20057;-72
2023/03/28 12:00:35;;;;;;;11.98;2.10;;;7.80;99.90;;;;;;4966119;28;20027;-72
2023/03/28 12:03:23;;;;;;;13.00;1.88;;;8.00;99.90;;;;;;4950399;28;20261;-72
2023/03/28 12:06:00;;;;;;;8.88;1.83;;;8.10;99.90;;;;;;4961412;28;20057;-72
2023/03/28 12:08:46;;;;;;;12.10;1.92;;;8.20;99.90;;;;;;4965610;28;20027;-72
2023/03/28 12:11:45;;;;;;;6.90;1.67;;;8.40;99.90;;;;;;4970446;28;20149;-72
2023/03/28 12:14:34;;;;;;;7.40;1.55;;;8.60;99.90;;;;;;4917609;28;20314;-72
2023/03/28 12:17:08;;;;;;;6.18;1.67;;;8.60;99.90;;;;;;4958740;28;20042;-72
2023/03/28 12:19:38;;;;;;;10.38;2.03;;;8.90;99.90;;;;;;4968264;28;20039;-72
2023/03/28 12:22:33;;;;;;;10.70;2.25;;;9.00;99.90;;;;;;4970406;28;20509;-72
2023/03/28 12:25:19;;;;;;;5.03;2.03;;;9.30;99.90;;;;;;4960824;28;20038;-72
2023/03/28 12:27:55;;;;;;;6.18;1.80;;;9.40;99.90;;;;;;4975561;28;20039;-73
2023/03/28 12:30:57;;;;;;;9.02;1.77;;;9.70;99.90;;;;;;4969375;28;20097;-72
2023/03/28 12:33:39;;;;;;;6.72;1.70;;;10.00;99.90;;;;;;4979720;28;20052;-72
2023/03/28 12:36:40;;;;;;;10.07;1.92;;;10.20;99.90;;;;;;4978094;28;20393;-73
2023/03/28 12:39:21;;;;;;;11.15;2.00;;;10.20;99.90;;;;;;4973471;28;20046;-73
2023/03/28 12:41:47;;;;;;;8.48;1.77;;;10.30;99.90;;;;;;4975604;28;20073;-72
2023/03/28 12:44:18;;;;;;;6.75;1.88;;;10.10;99.90;;;;;;4972621;28;20419;-73
2023/03/28 12:46:52;;;;;;;4.93;1.50;;;10.10;99.90;;;;;;4967568;28;20422;-73
2023/03/28 12:49:33;;;;;;;5.63;1.25;;;10.00;99.90;;;;;;4970668;28;20190;-73
2023/03/28 12:52:05;;;;;;;8.05;1.52;;;10.10;99.90;;;;;;4971161;28;20030;-73
2023/03/28 12:54:33;;;;;;;7.35;1.65;;;9.80;99.80;;;;;;4974883;28;20387;-72
2023/03/28 12:57:02;;;;;;;5.32;1.40;;;9.80;96.90;;;;;;4976403;28;20343;-73
2023/03/28 12:59:34;;;;;;;4.15;1.40;;;9.90;99.90;;;;;;4958741;28;20083;-73
2023/03/28 13:02:22;;;;;;;5.47;1.30;;;10.10;98.60;;;;;;4964665;28;20059;-73
2023/03/28 13:05:21;;;;;;;4.78;1.10;;;10.40;97.00;;;;;;4971819;28;20066;-74
2023/03/28 13:08:04;;;;;;;5.57;1.30;;;10.50;97.00;;;;;;4970432;28;20058;-72
2023/03/28 13:10:33;;;;;;;5.53;1.13;;;10.60;94.10;;;;;;4969995;28;20042;-73
2023/03/28 13:13:22;;;;;;;7.22;1.60;;;10.30;95.10;;;;;;4973656;28;20026;-72
2023/03/28 13:15:53;;;;;;;6.47;1.80;;;10.10;92.50;;;;;;4934462;28;20252;-73
2023/03/28 13:18:19;;;;;;;5.47;1.48;;;10.30;96.90;;;;;;4963956;28;20122;-73